Time;durP1;ratioP1;P1;durP2;ratioP2;P2;SDS_P1;SDS_P2;PMS_P1;PMS_P2;Temp;Humidity;BMP_temperature;BMP_pressure;BME280_temperature;BME280_humidity;BME280_pressure;Samples;Min_cycle;Max_cycle;Signal;HPM_P1;HPM_P2
2022/05/03 00:03:47;;;;;;;5.85;3.65;;;;;;;12.85;100.00;99988.53;3201953;26;20471;-71
2022/05/03 00:06:34;;;;;;;6.65;3.70;;;;;;;12.81;100.00;100021.84;4975383;28;20045;-70
2022/05/03 00:09:07;;;;;;;5.60;3.63;;;;;;;12.83;100.00;99979.25;4975431;28;20121;-71
2022/05/03 00:11:45;;;;;;;4.75;3.38;;;;;;;12.97;100.00;100000.81;4975373;28;20504;-70
2022/05/03 00:14:10;;;;;;;8.93;3.40;;;;;;;12.86;100.00;100013.13;4983138;28;20027;-72
2022/05/03 00:16:37;;;;;;;4.18;3.60;;;;;;;12.57;100.00;99964.91;4994996;28;20041;-70
2022/05/03 00:19:07;;;;;;;6.30;3.33;;;;;;;12.32;100.00;99966.66;4975418;28;20027;-74
2022/05/03 00:21:37;;;;;;;6.70;3.40;;;;;;;12.75;100.00;100022.06;4973762;28;20030;-70
2022/05/03 00:24:04;;;;;;;5.68;3.88;;;;;;;12.60;100.00;99967.34;4989938;28;20037;-70
2022/05/03 00:26:30;;;;;;;5.68;3.33;;;;;;;12.67;100.00;100004.50;4975175;28;20411;-71
2022/05/03 00:28:59;;;;;;;7.28;3.33;;;;;;;12.52;100.00;99973.63;4989973;28;20031;-70
2022/05/03 00:31:27;;;;;;;6.00;3.58;;;;;;;13.13;100.00;100003.66;4975106;28;20027;-70
2022/05/03 00:33:53;;;;;;;7.07;3.45;;;;;;;12.91;100.00;100013.78;4974914;28;20463;-69
2022/05/03 00:36:19;;;;;;;6.80;3.63;;;;;;;12.69;100.00;99961.06;4975095;28;20552;-71
2022/05/03 00:38:45;;;;;;;4.70;3.33;;;;;;;12.37;100.00;99949.50;4975148;28;20130;-71
2022/05/03 00:41:17;;;;;;;6.45;3.75;;;;;;;12.76;100.00;100000.75;4975182;28;20031;-71
2022/05/03 00:44:00;;;;;;;5.13;3.25;;;;;;;12.80;100.00;99997.22;4974758;28;20101;-70
2022/05/03 00:46:30;;;;;;;6.57;3.20;;;;;;;12.57;100.00;99964.06;4974862;28;20030;-71
2022/05/03 00:49:04;;;;;;;5.57;3.28;;;;;;;12.78;100.00;100007.47;4974735;28;20085;-71
2022/05/03 00:51:45;;;;;;;8.52;3.60;;;;;;;12.91;100.00;100016.34;4974139;28;20035;-71
2022/05/03 00:54:52;;;;;;;6.07;3.30;;;;;;;12.70;100.00;99999.28;4974658;28;20031;-71
2022/05/03 00:58:05;;;;;;;4.60;3.25;;;;;;;12.72;100.00;99959.22;4974670;28;20061;-71
2022/05/03 01:00:34;;;;;;;5.70;3.40;;;;;;;12.92;100.00;99981.44;4972451;28;20043;-70
2022/05/03 01:03:19;;;;;;;5.13;3.20;;;;;;;12.52;100.00;99937.91;4972588;28;20059;-70
2022/05/03 01:06:33;;;;;;;5.57;3.33;;;;;;;12.88;100.00;99992.66;4974571;28;20030;-71
2022/05/03 01:09:09;;;;;;;5.57;3.30;;;;;;;12.55;100.00;99948.00;4974107;28;20101;-71
2022/05/03 01:11:55;;;;;;;4.00;3.15;;;;;;;13.24;100.00;99991.31;4974135;28;20033;-70
2022/05/03 01:14:53;;;;;;;7.07;3.70;;;;;;;12.45;100.00;99905.88;4989186;28;20031;-71
2022/05/03 01:17:48;;;;;;;6.40;3.40;;;;;;;12.91;100.00;99992.56;4974817;28;20023;-71
2022/05/03 01:20:26;;;;;;;6.60;3.58;;;;;;;13.00;100.00;99966.69;4988650;28;20061;-71
2022/05/03 01:23:27;;;;;;;7.82;3.72;;;;;;;12.70;100.00;99942.31;4993486;28;20101;-71
2022/05/03 01:25:58;;;;;;;7.97;3.47;;;;;;;12.72;100.00;99982.19;4993296;28;20034;-71
2022/05/03 01:28:31;;;;;;;5.43;3.55;;;;;;;12.57;100.00;99982.75;4992175;28;20034;-72
2022/05/03 01:31:10;;;;;;;5.30;3.40;;;;;;;12.73;100.00;99983.88;4993477;28;20030;-71
2022/05/03 01:33:42;;;;;;;5.53;3.22;;;;;;;12.51;100.00;99975.31;4993756;28;20062;-71
2022/05/03 01:36:08;;;;;;;4.88;3.33;;;;;;;12.16;100.00;99889.09;4993124;28;20030;-71
2022/05/03 01:39:11;;;;;;;6.72;3.58;;;;;;;12.83;100.00;99977.53;4992886;28;20034;-71
2022/05/03 01:41:54;;;;;;;6.72;3.20;;;;;;;12.54;100.00;99976.94;4992046;28;20045;-71
2022/05/03 01:44:39;;;;;;;5.70;3.50;;;;;;;12.58;100.00;99973.38;4993215;28;20034;-72
2022/05/03 01:47:24;;;;;;;9.43;3.60;;;;;;;12.38;100.00;99915.44;4993176;28;20574;-72
2022/05/03 01:52:39;;;;;;;10.35;6.35;;;;;;;12.62;100.00;99980.03;4993162;28;20519;-72
2022/05/03 01:55:52;;;;;;;11.32;6.88;;;;;;;12.65;100.00;99974.81;4992495;28;20026;-71
2022/05/03 01:58:40;;;;;;;10.60;5.70;;;;;;;12.35;100.00;99966.56;4992883;28;20093;-71
2022/05/03 02:01:23;;;;;;;9.85;5.78;;;;;;;12.36;100.00;99963.09;4992964;28;20023;-71
2022/05/03 02:04:02;;;;;;;13.18;7.60;;;;;;;12.37;100.00;99969.88;4992572;28;20405;-71
2022/05/03 02:06:54;;;;;;;8.90;7.03;;;;;;;12.48;100.00;99977.16;4992741;28;20408;-71
2022/05/03 02:09:42;;;;;;;8.82;5.85;;;;;;;12.01;100.00;99926.13;4991245;28;20452;-71
2022/05/03 02:12:17;;;;;;;8.63;5.00;;;;;;;12.37;100.00;99980.09;4991726;28;20030;-71
2022/05/03 02:15:05;;;;;;;8.48;5.47;;;;;;;12.14;100.00;99914.59;4992423;28;20089;-71
2022/05/03 02:17:49;;;;;;;9.38;7.18;;;;;;;12.37;100.00;99929.09;4992535;28;20034;-70
2022/05/03 02:20:28;;;;;;;12.48;11.20;;;;;;;12.29;100.00;99959.13;4992207;28;20089;-70
2022/05/03 02:23:05;;;;;;;9.48;8.55;;;;;;;12.50;100.00;99975.38;4992300;28;20492;-71
2022/05/03 02:25:58;;;;;;;11.57;8.07;;;;;;;12.47;100.00;99975.47;4992407;28;20097;-72
2022/05/03 02:28:42;;;;;;;8.77;6.38;;;;;;;12.31;100.00;99959.91;4990645;28;20066;-72
2022/05/03 02:31:13;;;;;;;6.22;5.30;;;;;;;12.23;100.00;99977.19;4992382;28;20089;-72
2022/05/03 02:33:48;;;;;;;5.60;4.63;;;;;;;12.07;100.00;99964.13;4992246;28;20037;-71
2022/05/03 02:36:16;;;;;;;7.40;4.20;;;;;;;12.14;100.00;99960.47;4992260;28;20035;-71
2022/05/03 02:39:00;;;;;;;5.35;3.72;;;;;;;12.38;100.00;99971.53;4990861;28;20030;-71
2022/05/03 02:41:26;;;;;;;8.52;4.15;;;;;;;11.69;100.00;99866.97;4992194;28;20535;-72
2022/05/03 02:43:55;;;;;;;6.45;3.88;;;;;;;11.89;100.00;99911.25;4990625;28;20037;-72
2022/05/03 02:46:39;;;;;;;6.72;3.70;;;;;;;12.11;100.00;99969.97;4990907;28;20396;-72
2022/05/03 02:49:12;;;;;;;5.97;3.72;;;;;;;11.96;100.00;99955.19;4991670;28;20034;-72
2022/05/03 02:51:51;;;;;;;6.63;3.85;;;;;;;11.64;100.00;99914.66;4991836;28;20144;-72
2022/05/03 02:54:46;;;;;;;5.28;3.60;;;;;;;12.04;100.00;99963.41;4991897;28;20037;-72
2022/05/03 02:57:30;;;;;;;6.45;3.88;;;;;;;12.19;100.00;99971.38;4972988;28;20050;-72
2022/05/03 03:03:16;;;;;;;6.15;4.00;;;;;;;12.06;100.00;99934.44;4991893;28;20085;-71
2022/05/03 03:05:48;;;;;;;6.43;3.92;;;;;;;12.28;100.00;99969.38;4991490;28;20042;-71
2022/05/03 03:08:21;;;;;;;5.00;3.63;;;;;;;11.95;100.00;99898.31;4991606;28;20047;-70
2022/05/03 03:11:09;;;;;;;7.10;4.13;;;;;;;11.95;100.00;99908.50;4990294;28;20041;-71
2022/05/03 03:13:59;;;;;;;6.15;4.22;;;;;;;12.24;100.00;99970.38;4991564;28;20131;-71
2022/05/03 03:16:39;;;;;;;9.45;5.15;;;;;;;12.04;100.00;99917.56;4990911;28;20048;-71
2022/05/03 03:19:32;;;;;;;9.50;5.20;;;;;;;12.59;100.00;99972.50;4991371;28;20074;-70
2022/05/03 03:22:00;;;;;;;8.43;4.53;;;;;;;12.53;100.00;99948.06;4990539;28;20104;-71
2022/05/03 03:24:27;;;;;;;5.45;3.88;;;;;;;11.84;100.00;99885.13;4989933;28;20027;-71
2022/05/03 03:26:54;;;;;;;10.88;5.72;;;;;;;12.19;100.00;99967.97;4991188;28;20033;-71
2022/05/03 03:29:21;;;;;;;8.30;4.15;;;;;;;12.40;100.00;99972.31;4990263;28;20125;-71
2022/05/03 03:31:49;;;;;;;6.70;3.63;;;;;;;12.35;100.00;99975.91;4991273;28;20050;-71
2022/05/03 03:34:15;;;;;;;5.15;3.50;;;;;;;12.31;100.00;99938.66;4991399;28;20542;-71
2022/05/03 03:36:43;;;;;;;6.55;4.03;;;;;;;12.14;100.00;99921.44;4991362;28;20066;-71
2022/05/03 03:39:08;;;;;;;7.03;3.50;;;;;;;12.72;100.00;99989.84;4991159;28;20031;-70
2022/05/03 03:41:34;;;;;;;7.57;3.25;;;;;;;12.61;100.00;99976.66;4991312;28;20037;-70
2022/05/03 03:44:03;;;;;;;6.43;3.20;;;;;;;12.49;100.00;99987.31;4988950;28;20485;-71
2022/05/03 03:46:29;;;;;;;5.45;3.17;;;;;;;12.51;100.00;99974.50;4989893;28;20038;-71
2022/05/03 03:48:54;;;;;;;7.40;4.07;;;;;;;12.54;100.00;99967.56;4990518;28;20038;-70
2022/05/03 03:51:20;;;;;;;5.78;4.03;;;;;;;12.42;100.00;99962.09;5006275;28;20125;-70
2022/05/03 03:53:47;;;;;;;7.45;3.97;;;;;;;12.19;100.00;99950.13;4991166;28;20488;-71
2022/05/03 03:56:12;;;;;;;8.00;4.20;;;;;;;12.08;100.00;99926.75;4989036;28;20027;-71
2022/05/03 03:58:38;;;;;;;7.78;4.13;;;;;;;12.48;100.00;99989.91;4984959;28;20132;-70
2022/05/03 04:01:04;;;;;;;7.95;3.75;;;;;;;12.45;100.00;99977.25;4989451;28;20112;-71
2022/05/03 04:03:30;;;;;;;4.07;3.20;;;;;;;12.19;100.00;99957.78;4980267;28;20049;-71
2022/05/03 04:05:55;;;;;;;4.25;3.30;;;;;;;12.56;100.00;100005.75;4987345;28;20096;-71
2022/05/03 04:08:21;;;;;;;5.97;2.83;;;;;;;12.29;100.00;99948.94;4990790;28;20030;-70
2022/05/03 04:10:48;;;;;;;5.50;2.88;;;;;;;12.65;100.00;100007.97;4989850;28;20041;-70
2022/05/03 04:13:13;;;;;;;6.57;2.90;;;;;;;12.29;100.00;99948.94;4990539;28;20088;-71
2022/05/03 04:15:39;;;;;;;5.80;2.72;;;;;;;12.40;100.00;99977.41;4990980;28;20396;-70
2022/05/03 04:18:08;;;;;;;4.93;2.45;;;;;;;12.15;100.00;99953.69;4987251;28;20121;-71
2022/05/03 04:20:34;;;;;;;7.20;2.80;;;;;;;12.63;100.00;100002.94;4988920;28;20026;-71
2022/05/03 04:23:01;;;;;;;4.65;2.80;;;;;;;12.64;100.00;100007.13;4990530;28;20033;-70
2022/05/03 04:25:26;;;;;;;4.35;2.50;;;;;;;12.16;100.00;99976.56;4990924;28;20038;-70
2022/05/03 04:27:52;;;;;;;6.20;2.63;;;;;;;12.52;100.00;100011.88;4992677;28;20113;-70
2022/05/03 04:30:17;;;;;;;5.28;2.60;;;;;;;12.02;100.00;99952.44;4994479;28;20030;-70
2022/05/03 04:32:43;;;;;;;5.72;2.60;;;;;;;12.12;100.00;99946.16;4994378;28;20081;-70
2022/05/03 04:35:09;;;;;;;5.15;2.72;;;;;;;12.10;100.00;99945.38;4994440;28;20026;-70
2022/05/03 04:37:35;;;;;;;4.43;2.33;;;;;;;12.41;100.00;100006.28;4994415;28;20037;-71
2022/05/03 04:40:00;;;;;;;4.57;2.42;;;;;;;12.29;100.00;99969.31;4987902;28;20042;-70
2022/05/03 04:42:26;;;;;;;8.20;2.38;;;;;;;11.96;100.00;99901.69;4994068;28;20397;-71
2022/05/03 04:44:52;;;;;;;3.65;2.20;;;;;;;12.55;100.00;99992.19;4987860;28;20138;-70
2022/05/03 04:47:17;;;;;;;6.65;2.67;;;;;;;12.52;100.00;99943.00;4994284;28;20026;-71
2022/05/03 04:49:43;;;;;;;4.32;2.33;;;;;;;12.44;100.00;99953.47;4992919;28;20045;-71
2022/05/03 04:52:08;;;;;;;6.40;2.90;;;;;;;12.85;100.00;100000.44;4994180;28;20041;-72
2022/05/03 04:54:36;;;;;;;5.47;3.47;;;;;;;12.48;100.00;99937.19;4992848;28;20475;-71
2022/05/03 04:57:03;;;;;;;6.80;3.67;;;;;;;12.91;100.00;99998.47;4994103;28;20062;-74
2022/05/03 04:59:29;;;;;;;9.65;4.70;;;;;;;12.73;100.00;100003.44;4991504;28;20488;-70
2022/05/03 05:01:55;;;;;;;8.27;4.57;;;;;;;12.84;100.00;99947.72;4994088;28;20038;-70
2022/05/03 05:04:20;;;;;;;8.98;3.40;;;;;;;13.02;100.00;100000.63;4993226;28;20058;-69
2022/05/03 05:06:45;;;;;;;6.18;3.10;;;;;;;13.04;100.00;99992.06;4993385;28;20411;-70
2022/05/03 05:09:11;;;;;;;6.80;3.22;;;;;;;13.12;100.00;100007.09;4993246;28;20034;-70
2022/05/03 05:11:37;;;;;;;6.05;2.70;;;;;;;13.09;100.00;99973.19;4993528;28;20027;-70
2022/05/03 05:14:02;;;;;;;5.97;2.30;;;;;;;13.09;100.00;100004.66;4991171;28;20118;-70
2022/05/03 05:16:28;;;;;;;5.55;2.35;;;;;;;13.25;100.00;100005.72;4993133;28;20121;-70
2022/05/03 05:18:53;;;;;;;4.75;2.50;;;;;;;13.16;100.00;99955.03;4993568;28;20390;-70
2022/05/03 05:21:19;;;;;;;5.63;2.30;;;;;;;13.30;100.00;100001.28;4992963;28;20563;-69
2022/05/03 05:23:44;;;;;;;5.60;2.55;;;;;;;13.34;100.00;100013.03;4992782;28;20121;-69
2022/05/03 05:26:11;;;;;;;6.78;2.45;;;;;;;13.51;100.00;99997.88;4993320;28;20030;-71
2022/05/03 05:28:36;;;;;;;5.03;2.67;;;;;;;13.31;100.00;99974.84;4992992;28;20105;-72
2022/05/03 05:31:02;;;;;;;5.97;2.33;;;;;;;13.38;100.00;100013.75;4993437;28;20573;-72
2022/05/03 05:33:27;;;;;;;8.60;3.53;;;;;;;13.35;100.00;100014.69;4993108;28;20031;-72
2022/05/03 05:35:53;;;;;;;9.02;4.30;;;;;;;13.35;100.00;100024.91;5008047;28;20030;-71
2022/05/03 05:38:19;;;;;;;3.58;2.78;;;;;;;13.07;100.00;100034.53;5005480;28;20566;-71
2022/05/03 05:40:46;;;;;;;5.75;2.20;;;;;;;13.31;100.00;100048.09;4994313;28;20082;-70
2022/05/03 05:43:12;;;;;;;3.97;2.40;;;;;;;13.05;100.00;99985.25;4982459;28;20040;-72
2022/05/03 05:45:38;;;;;;;6.85;2.33;;;;;;;13.46;100.00;100047.50;4992887;28;20038;-71
2022/05/03 05:48:04;;;;;;;4.13;2.65;;;;;;;13.17;100.00;100009.47;4991531;28;20412;-70
2022/05/03 05:50:30;;;;;;;6.07;2.80;;;;;;;13.55;100.00;100042.84;4992581;28;20035;-69
2022/05/03 05:55:39;;;;;;;8.40;2.53;;;;;;;12.92;100.00;99991.66;4992080;28;20431;-69
2022/05/03 05:58:05;;;;;;;5.13;2.20;;;;;;;13.37;100.00;100053.78;4992333;28;20026;-69
2022/05/03 06:00:31;;;;;;;4.10;1.95;;;;;;;12.91;100.00;100021.44;4990871;28;20491;-70
2022/05/03 06:02:58;;;;;;;4.32;2.10;;;;;;;12.94;100.00;100059.63;4990826;28;20042;-70
2022/05/03 06:05:23;;;;;;;3.80;2.30;;;;;;;12.81;100.00;99988.69;4992009;28;20077;-69
2022/05/03 06:07:49;;;;;;;10.13;2.80;;;;;;;13.06;100.00;100004.75;4992003;28;20030;-68
2022/05/03 06:10:14;;;;;;;3.60;2.10;;;;;;;12.79;100.00;99995.56;4991445;28;20030;-69
2022/05/03 06:12:40;;;;;;;6.22;2.03;;;;;;;12.76;100.00;99983.75;4991706;28;20408;-69
2022/05/03 06:15:06;;;;;;;6.40;2.35;;;;;;;12.94;100.00;99990.72;4990633;28;20031;-69
2022/05/03 06:17:32;;;;;;;4.93;2.67;;;;;;;13.38;100.00;100060.56;4989467;28;20459;-69
2022/05/03 06:19:57;;;;;;;6.03;2.65;;;;;;;12.89;100.00;99950.97;4991160;28;20023;-71
2022/05/03 06:22:23;;;;;;;6.00;2.28;;;;;;;13.21;100.00;100064.63;4991835;28;20034;-69
2022/05/03 06:24:48;;;;;;;4.75;2.25;;;;;;;12.98;100.00;99976.13;4992073;28;20030;-69
2022/05/03 06:27:14;;;;;;;5.13;2.92;;;;;;;13.38;100.00;100052.06;4992285;28;20029;-70
2022/05/03 06:29:42;;;;;;;7.07;3.00;;;;;;;13.33;100.00;100047.13;4992169;28;20034;-71
2022/05/03 06:32:10;;;;;;;4.68;2.45;;;;;;;13.07;100.00;99988.59;5007864;28;20038;-71
2022/05/03 06:34:36;;;;;;;7.68;2.28;;;;;;;13.05;100.00;100049.88;4992220;28;20065;-69
2022/05/03 06:37:01;;;;;;;3.85;2.17;;;;;;;12.67;100.00;99967.94;4992917;28;20488;-69
2022/05/03 06:39:27;;;;;;;8.05;3.10;;;;;;;13.47;100.00;100049.97;4991410;28;20035;-70
2022/05/03 06:41:52;;;;;;;5.93;2.70;;;;;;;13.47;100.00;100060.19;4991264;28;20102;-71
2022/05/03 06:44:18;;;;;;;8.27;3.00;;;;;;;13.43;100.00;100012.69;4990683;28;20481;-71
2022/05/03 06:46:44;;;;;;;9.25;2.78;;;;;;;13.59;100.00;100052.06;4988848;28;20022;-70
2022/05/03 06:49:10;;;;;;;6.38;3.08;;;;;;;13.59;100.00;100069.09;4990025;28;20476;-71
2022/05/03 06:51:36;;;;;;;9.15;3.22;;;;;;;13.19;100.00;100007.69;4990123;28;20041;-70
2022/05/03 06:54:02;;;;;;;6.97;2.72;;;;;;;13.51;100.00;100060.94;4991587;28;20113;-71
2022/05/03 06:56:28;;;;;;;6.85;2.25;;;;;;;12.99;100.00;100011.78;4991636;28;20425;-70
2022/05/03 06:58:53;;;;;;;6.78;2.80;;;;;;;13.24;100.00;100065.34;4991632;28;20072;-71
2022/05/03 07:01:19;;;;;;;5.38;2.78;;;;;;;13.16;100.00;100056.31;4991685;28;20034;-70
2022/05/03 07:03:44;;;;;;;8.32;2.97;;;;;;;13.23;100.00;100078.97;4991643;28;20472;-70
2022/05/03 07:06:10;;;;;;;5.10;2.70;;;;;;;13.35;100.00;100062.41;4991723;28;20027;-70
2022/05/03 07:08:37;;;;;;;23.77;6.65;;;;;;;13.05;100.00;100026.09;4991263;28;20065;-71
2022/05/03 07:11:03;;;;;;;7.25;2.95;;;;;;;13.09;100.00;100057.44;4991399;28;20477;-71
2022/05/03 07:13:28;;;;;;;6.07;3.22;;;;;;;13.20;100.00;100071.47;4990108;28;20031;-70
2022/05/03 07:15:55;;;;;;;6.35;2.97;;;;;;;13.29;100.00;100047.31;4991480;28;20259;-71
2022/05/03 07:23:51;;;;;;;8.57;3.17;;;;;;;13.21;100.00;100031.44;4991562;28;20165;-69
2022/05/03 07:26:17;;;;;;;7.82;3.00;;;;;;;12.99;100.00;100014.34;4991506;28;20034;-70
2022/05/03 07:28:43;;;;;;;7.88;3.25;;;;;;;12.69;100.00;99969.56;4989632;28;20042;-70
2022/05/03 07:31:09;;;;;;;8.60;3.20;;;;;;;13.11;100.00;100063.31;4990135;28;20035;-71
2022/05/03 07:33:35;;;;;;;6.03;3.10;;;;;;;13.26;100.00;100076.34;4991285;28;20038;-70
2022/05/03 07:36:01;;;;;;;8.40;3.47;;;;;;;13.02;100.00;100074.66;4991352;28;20131;-68
2022/05/03 07:38:28;;;;;;;13.02;3.88;;;;;;;13.03;100.00;100066.13;4991286;28;20066;-68
2022/05/03 07:40:54;;;;;;;11.52;3.97;;;;;;;12.61;100.00;100014.06;4990964;28;20493;-69
2022/05/03 07:43:19;;;;;;;10.25;4.38;;;;;;;12.81;100.00;100049.91;4991080;28;20076;-69
2022/05/03 07:45:45;;;;;;;9.30;5.22;;;;;;;12.81;100.00;100080.53;4991499;28;20419;-68
2022/05/03 07:48:10;;;;;;;9.27;4.82;;;;;;;13.21;100.00;100070.56;4990854;28;20548;-70
2022/05/03 07:50:35;;;;;;;9.35;4.53;;;;;;;12.49;100.00;100011.97;4991225;28;20023;-70
2022/05/03 07:53:01;;;;;;;6.97;4.13;;;;;;;12.80;100.00;100032.94;4991029;28;20027;-71
2022/05/03 07:55:26;;;;;;;9.60;4.63;;;;;;;12.86;100.00;100040.34;4990864;28;20042;-69
2022/05/03 07:57:52;;;;;;;7.75;3.92;;;;;;;12.52;100.00;100012.69;4991001;28;20512;-70
2022/05/03 08:00:17;;;;;;;7.65;3.47;;;;;;;12.80;100.00;100066.09;4991175;28;20412;-70
2022/05/03 08:02:43;;;;;;;6.03;3.70;;;;;;;12.57;100.00;100003.16;4987352;28;20495;-67
2022/05/03 08:05:10;;;;;;;9.57;4.40;;;;;;;12.93;100.00;100022.22;4994194;28;20109;-69
2022/05/03 08:07:36;;;;;;;8.43;4.00;;;;;;;13.18;100.00;100022.19;4993433;28;20519;-69
2022/05/03 08:10:03;;;;;;;5.85;3.90;;;;;;;13.18;100.00;100077.50;4994264;28;20034;-67
2022/05/03 08:12:28;;;;;;;10.18;4.35;;;;;;;12.77;100.00;100008.38;4993069;28;20055;-69
2022/05/03 08:14:55;;;;;;;7.50;4.70;;;;;;;13.02;100.00;100010.84;4994496;28;20119;-69
2022/05/03 08:17:21;;;;;;;7.60;4.72;;;;;;;13.29;100.00;100073.66;4994493;28;20092;-69
2022/05/03 08:19:46;;;;;;;6.78;4.15;;;;;;;13.30;100.00;100062.56;4994391;28;20056;-67
2022/05/03 08:22:12;;;;;;;7.70;4.47;;;;;;;13.15;100.00;100012.09;4993046;28;20416;-67
2022/05/03 08:24:37;;;;;;;7.90;4.50;;;;;;;12.65;100.00;99965.47;4992265;28;20038;-68
2022/05/03 08:27:04;;;;;;;5.47;3.92;;;;;;;13.66;100.00;100065.44;4975364;28;20113;-68
2022/05/03 08:29:31;;;;;;;8.52;3.97;;;;;;;13.35;100.00;100027.47;4973385;28;20402;-67
2022/05/03 08:31:58;;;;;;;10.20;4.38;;;;;;;13.59;100.00;100051.22;4974542;28;20477;-67
2022/05/03 08:34:24;;;;;;;49.35;8.63;;;;;;;13.54;100.00;100076.13;4974786;28;20563;-69
2022/05/03 08:42:17;;;;;;;8.85;4.57;;;;;;;13.55;100.00;100075.22;4990789;28;20041;-70
2022/05/03 08:44:43;;;;;;;6.22;4.47;;;;;;;12.98;100.00;100037.38;4994064;28;20035;-70
2022/05/03 08:47:09;;;;;;;7.50;3.60;;;;;;;13.14;100.00;100043.59;4993965;28;20041;-69
2022/05/03 08:49:52;;;;;;;5.97;3.25;;;;;;;13.65;100.00;100090.13;4993746;28;20073;-68
2022/05/03 08:52:20;;;;;;;5.85;3.00;;;;;;;13.54;100.00;100045.47;4993642;28;20062;-69
2022/05/03 08:54:46;;;;;;;6.78;3.85;;;;;;;13.46;100.00;100052.59;4993702;28;20037;-69
2022/05/03 08:57:12;;;;;;;5.53;3.58;;;;;;;13.26;100.00;99981.88;4993026;28;20404;-69
2022/05/03 08:59:38;;;;;;;10.25;4.20;;;;;;;13.54;100.00;100036.09;4992122;28;20540;-69
2022/05/03 09:02:07;;;;;;;8.48;4.28;;;;;;;13.80;100.00;100027.38;4992756;28;20061;-69
2022/05/03 09:04:32;;;;;;;7.05;4.10;;;;;;;14.00;100.00;100090.47;4993106;28;20082;-68
2022/05/03 09:07:16;;;;;;;6.43;4.40;;;;;;;13.70;100.00;100049.94;4993257;28;20069;-69
2022/05/03 09:09:41;;;;;;;8.15;4.40;;;;;;;13.22;100.00;100018.63;4993419;28;20038;-69
2022/05/03 09:12:21;;;;;;;9.88;5.10;;;;;;;13.47;100.00;100056.81;4993349;28;20096;-67
2022/05/03 09:14:46;;;;;;;10.48;4.25;;;;;;;12.87;100.00;100090.53;4992733;28;20113;-67
2022/05/03 09:17:12;;;;;;;7.75;3.97;;;;;;;12.71;100.00;100099.59;4993024;28;20045;-67
2022/05/03 09:19:37;;;;;;;8.85;5.07;;;;;;;12.46;100.00;100080.94;4992568;28;20022;-70
2022/05/03 09:24:59;;;;;;;6.10;2.80;;;;;;;11.70;100.00;100139.44;4992380;28;20057;-68
2022/05/03 09:27:26;;;;;;;6.70;3.00;;;;;;;11.15;100.00;100079.06;4993122;28;20069;-67
2022/05/03 09:30:05;;;;;;;5.75;3.25;;;;;;;11.29;100.00;100116.84;4992592;28;20096;-67
2022/05/03 09:32:40;;;;;;;6.72;3.80;;;;;;;10.76;100.00;100041.19;4991271;28;20027;-66
2022/05/03 09:35:07;;;;;;;4.22;2.55;;;;;;;10.60;100.00;100050.16;4991068;28;20488;-66
2022/05/03 09:37:42;;;;;;;6.60;2.92;;;;;;;10.92;100.00;100085.69;4992692;28;20114;-67
2022/05/03 09:40:09;;;;;;;5.47;3.53;;;;;;;11.18;100.00;100093.41;4992767;28;20034;-68
2022/05/03 09:42:36;;;;;;;6.15;2.72;;;;;;;10.55;100.00;100024.84;4992905;28;20065;-68
2022/05/03 09:45:05;;;;;;;6.38;2.92;;;;;;;10.84;100.00;100046.91;4980654;28;20488;-68
2022/05/03 09:47:46;;;;;;;7.40;3.42;;;;;;;11.02;100.00;100080.31;5001438;28;20097;-69
2022/05/03 09:50:27;;;;;;;5.63;3.22;;;;;;;10.89;100.00;100066.28;4992379;28;20483;-67
2022/05/03 09:52:54;;;;;;;6.80;4.00;;;;;;;10.67;100.00;100041.47;4989887;28;20117;-68
2022/05/03 09:55:30;;;;;;;5.97;3.60;;;;;;;10.57;100.00;100023.09;4992334;28;20049;-68
2022/05/03 09:57:59;;;;;;;7.75;3.55;;;;;;;10.78;100.00;100036.91;4983960;28;20070;-67
2022/05/03 10:00:24;;;;;;;3.65;3.10;;;;;;;11.01;100.00;100088.78;4992238;28;20389;-67
2022/05/03 10:02:50;;;;;;;6.75;2.90;;;;;;;11.11;100.00;100086.84;4992298;28;20061;-68
2022/05/03 10:05:20;;;;;;;6.10;3.03;;;;;;;11.03;100.00;100079.41;4991995;28;20062;-67
2022/05/03 10:07:46;;;;;;;7.30;3.47;;;;;;;11.42;100.00;100095.25;4982721;28;20031;-67
2022/05/03 10:10:13;;;;;;;5.88;3.80;;;;;;;11.49;100.00;100095.94;4990198;28;20101;-68
2022/05/03 10:12:38;;;;;;;6.93;3.50;;;;;;;11.27;100.00;100038.00;4989312;28;20038;-68
2022/05/03 10:15:05;;;;;;;8.70;4.10;;;;;;;11.82;100.00;100100.84;4988781;28;20096;-68
2022/05/03 10:23:16;;;;;;;6.68;3.67;;;;;;;11.61;100.00;99991.13;4979496;28;20035;-68
2022/05/03 10:25:42;;;;;;;5.20;4.00;;;;;;;11.88;100.00;100103.22;4971485;28;20485;-68
2022/05/03 10:28:07;;;;;;;5.75;3.72;;;;;;;11.30;100.00;100022.66;4971931;28;20050;-68
2022/05/03 10:30:34;;;;;;;6.05;3.67;;;;;;;11.90;100.00;100096.38;4972670;28;20039;-67
2022/05/03 10:33:23;;;;;;;7.72;4.10;;;;;;;12.14;100.00;100093.00;4987533;28;20035;-67
2022/05/03 10:35:50;;;;;;;5.22;3.63;;;;;;;12.24;100.00;100072.31;4972128;28;20027;-68
2022/05/03 10:38:34;;;;;;;6.18;3.53;;;;;;;12.15;100.00;100019.94;4971929;28;20050;-67
2022/05/03 10:40:59;;;;;;;4.03;3.20;;;;;;;12.31;100.00;100071.22;4972368;28;20026;-69
2022/05/03 10:43:27;;;;;;;5.20;3.60;;;;;;;12.40;100.00;100079.41;4975073;28;20038;-68
2022/05/03 10:46:09;;;;;;;6.55;4.15;;;;;;;12.71;100.00;100099.59;4991317;28;20408;-69
2022/05/03 10:48:36;;;;;;;6.70;4.05;;;;;;;12.33;100.00;100034.59;4991099;28;20038;-68
2022/05/03 10:51:05;;;;;;;4.13;2.67;;;;;;;12.56;100.00;100110.31;4989829;28;20473;-68
2022/05/03 10:53:35;;;;;;;5.03;2.90;;;;;;;12.43;100.00;100047.88;4991497;28;20034;-68
2022/05/03 10:56:16;;;;;;;5.43;3.47;;;;;;;12.79;100.00;100095.06;4991077;28;20037;-67
2022/05/03 10:58:43;;;;;;;6.47;2.30;;;;;;;12.52;100.00;100096.03;4994832;28;20039;-69
2022/05/03 11:01:22;;;;;;;5.25;2.92;;;;;;;12.78;100.00;100060.22;4991263;28;20026;-68
2022/05/03 11:03:47;;;;;;;4.32;3.00;;;;;;;13.10;100.00;100110.97;4985229;28;20046;-66
2022/05/03 11:06:18;;;;;;;3.33;2.70;;;;;;;13.03;100.00;100117.16;4980402;28;20386;-67
2022/05/03 11:11:39;;;;;;;2.63;2.30;;;;;;;13.18;100.00;100110.69;4991038;28;20045;-66
2022/05/03 11:14:24;;;;;;;2.38;2.03;;;;;;;13.19;100.00;100107.25;4982874;28;20113;-68
2022/05/03 11:17:05;;;;;;;4.07;2.10;;;;;;;12.82;100.00;100031.16;4978820;28;20069;-67
2022/05/03 11:19:51;;;;;;;2.70;1.67;;;;;;;12.54;100.00;99998.16;4981336;28;20030;-67
2022/05/03 11:22:20;;;;;;;2.88;2.00;;;;;;;13.47;100.00;100085.72;4980906;28;20041;-67
2022/05/03 11:24:48;;;;;;;2.17;1.80;;;;;;;13.29;100.00;100095.81;4979228;28;20468;-67
2022/05/03 11:27:15;;;;;;;3.72;2.60;;;;;;;13.42;100.00;100100.41;4979627;28;20034;-67
2022/05/03 11:29:54;;;;;;;3.90;2.33;;;;;;;13.65;100.00;100092.69;4980825;28;20420;-67
2022/05/03 11:32:56;;;;;;;2.80;2.00;;;;;;;13.48;100.00;100097.63;4980734;28;20477;-67
2022/05/03 11:35:22;;;;;;;3.00;1.90;;;;;;;13.00;100.00;100043.25;4969898;28;20528;-68
2022/05/03 11:37:53;;;;;;;3.92;2.50;;;;;;;13.83;100.00;100089.44;4989233;28;20022;-69
2022/05/03 11:40:21;;;;;;;3.15;2.25;;;;;;;13.98;100.00;100084.59;4987603;28;20113;-68
2022/05/03 11:42:47;;;;;;;4.53;2.67;;;;;;;13.86;100.00;100043.28;4984183;28;20038;-67
2022/05/03 11:45:14;;;;;;;4.35;3.20;;;;;;;13.94;100.00;100084.72;4984297;28;20078;-68
2022/05/03 11:47:42;;;;;;;4.55;2.22;;;;;;;13.32;100.00;99996.94;4982578;28;20023;-68
2022/05/03 11:50:09;;;;;;;3.30;2.80;;;;;;;13.73;100.00;100072.78;4984115;28;20023;-68
2022/05/03 11:58:04;;;;;;;3.25;2.30;;;;;;;14.03;100.00;100083.50;4988231;28;20122;-68
2022/05/03 12:00:30;;;;;;;3.50;2.20;;;;;;;13.84;100.00;100085.97;4983532;28;20117;-67
2022/05/03 12:03:00;;;;;;;2.67;2.17;;;;;;;13.98;100.00;100092.28;4984198;28;20532;-67
2022/05/03 12:05:25;;;;;;;2.40;2.17;;;;;;;13.79;100.00;100095.56;4981404;28;20139;-67
2022/05/03 12:07:53;;;;;;;4.15;3.17;;;;;;;13.90;100.00;100084.91;4981803;28;20038;-66
2022/05/03 12:10:24;;;;;;;3.90;2.58;;;;;;;14.16;100.00;100094.09;4983966;28;20521;-68
2022/05/03 12:13:12;;;;;;;4.07;2.65;;;;;;;14.12;100.00;100095.09;4983336;28;20125;-67
2022/05/03 12:16:06;;;;;;;2.92;2.22;;;;;;;13.55;100.00;100032.63;4986474;28;20058;-66